createdAt,value
2018-12-22T00:04:38.690Z,99736.86
2018-12-22T00:09:41.106Z,99754.94
2018-12-22T00:14:43.595Z,99747.91
2018-12-22T00:19:46.378Z,99740.63
2018-12-22T00:24:48.840Z,99728.28
2018-12-22T00:29:51.877Z,99750.56
2018-12-22T00:34:54.343Z,99746.22
2018-12-22T00:39:56.898Z,99757.59
2018-12-22T00:45:00.174Z,99760.62
2018-12-22T00:50:02.919Z,99753.97
2018-12-22T00:55:05.989Z,99755.61
2018-12-22T01:00:09.638Z,99756.98
2018-12-22T01:05:12.235Z,99764.42
2018-12-22T01:10:15.100Z,99774.58
2018-12-22T01:15:17.905Z,99782.20
2018-12-22T01:20:20.292Z,99775.05
2018-12-22T01:25:23.070Z,99779.52
2018-12-22T01:30:25.395Z,99796.08
2018-12-22T01:35:28.859Z,99809.56
2018-12-22T01:40:31.356Z,99811.55
2018-12-22T01:45:33.799Z,99799.09
2018-12-22T01:50:36.238Z,99805.38
2018-12-22T01:55:39.329Z,99809.00
2018-12-22T02:00:41.687Z,99802.59
2018-12-22T02:05:44.924Z,99805.17
2018-12-22T02:10:47.695Z,99783.69
2018-12-22T02:15:50.269Z,99792.25
2018-12-22T02:20:52.811Z,99788.81
2018-12-22T02:25:56.518Z,99782.55
2018-12-22T02:30:58.883Z,99788.74
2018-12-22T02:36:01.278Z,99791.49
2018-12-22T02:41:03.774Z,99806.30
2018-12-22T02:46:07.082Z,99798.50
2018-12-22T02:51:09.684Z,99794.05
2018-12-22T02:56:12.189Z,99793.95
2018-12-22T03:01:14.645Z,99800.50
2018-12-22T03:06:17.038Z,99798.34
2018-12-22T03:11:19.489Z,99792.61
2018-12-22T03:16:21.926Z,99789.52
2018-12-22T03:21:24.398Z,99783.86
2018-12-22T03:26:27.379Z,99772.70
2018-12-22T03:31:30.182Z,99777.49
2018-12-22T03:36:32.637Z,99769.44
2018-12-22T03:41:35.307Z,99777.49
2018-12-22T03:46:37.778Z,99767.72
2018-12-22T03:51:40.143Z,99765.46
2018-12-22T03:56:42.604Z,99754.59
2018-12-22T04:01:44.942Z,99751.20
2018-12-22T04:06:48.249Z,99750.39
2018-12-22T04:11:50.896Z,99753.16
2018-12-22T04:16:53.489Z,99757.34
2018-12-22T04:21:55.942Z,99736.00
2018-12-22T04:26:58.338Z,99730.70
2018-12-22T04:32:00.789Z,99729.49
2018-12-22T04:37:03.258Z,99736.63
2018-12-22T04:42:05.599Z,99758.19
2018-12-22T04:47:08.011Z,99747.27
2018-12-22T04:52:10.397Z,99743.84
2018-12-22T04:57:13.068Z,99742.50
2018-12-22T05:02:15.356Z,99740.88
2018-12-22T05:07:17.662Z,99747.61
2018-12-22T05:12:20.203Z,99732.22
2018-12-22T05:17:22.613Z,99734.15
2018-12-22T05:22:25.040Z,99734.81
2018-12-22T05:27:27.878Z,99733.48
2018-12-22T05:32:30.306Z,99731.78
2018-12-22T05:37:33.396Z,99737.95
2018-12-22T05:42:35.834Z,99749.90
2018-12-22T05:47:38.195Z,99750.27
2018-12-22T05:52:40.584Z,99742.50
2018-12-22T05:57:43.004Z,99750.88
2018-12-22T06:02:45.611Z,99746.56
2018-12-22T06:07:48.137Z,99748.40
2018-12-22T06:12:50.629Z,99744.92
2018-12-22T06:17:53.073Z,99750.73
2018-12-22T06:22:55.383Z,99744.52
2018-12-22T06:27:57.863Z,99746.67
2018-12-22T06:33:00.273Z,99752.93
2018-12-22T06:38:02.929Z,99778.19
2018-12-22T06:43:05.916Z,99757.55
2018-12-22T06:48:08.208Z,99757.53
2018-12-22T06:53:14.009Z,99768.00
2018-12-22T06:58:16.902Z,99778.81
2018-12-22T07:03:19.314Z,99779.37
2018-12-22T07:08:21.893Z,99782.53
2018-12-22T07:13:24.614Z,99788.52
2018-12-22T07:18:27.005Z,99789.91
2018-12-22T07:23:30.090Z,99807.80
2018-12-22T07:28:32.549Z,99808.84
2018-12-22T07:33:34.926Z,99836.17
2018-12-22T07:38:38.646Z,99848.60
2018-12-22T07:43:41.682Z,99833.56
2018-12-22T07:48:44.230Z,99832.89
2018-12-22T07:53:46.551Z,99830.17
2018-12-22T07:58:49.218Z,99845.39
2018-12-22T08:03:51.694Z,99856.89
2018-12-22T08:08:53.997Z,99860.70
2018-12-22T08:13:56.577Z,99877.82
2018-12-22T08:18:58.996Z,99888.25
2018-12-22T08:24:01.379Z,99890.84
2018-12-22T08:29:03.804Z,99898.11
2018-12-22T08:34:06.489Z,99927.39
2018-12-22T08:39:09.287Z,99927.22
2018-12-22T08:44:11.849Z,99950.49
2018-12-22T08:49:14.223Z,99966.21
2018-12-22T08:54:16.709Z,99977.19
2018-12-22T08:59:20.438Z,99996.16
2018-12-22T09:04:22.881Z,100009.24
2018-12-22T09:09:25.315Z,100044.55
2018-12-22T09:14:27.619Z,100049.09
2018-12-22T09:19:29.885Z,100049.39
2018-12-22T09:24:32.791Z,100069.17
2018-12-22T09:29:36.238Z,100100.30
2018-12-22T09:34:38.854Z,100111.10
2018-12-22T09:40:02.697Z,100161.16
2018-12-22T09:45:06.417Z,100182.13
2018-12-22T09:50:12.122Z,100170.55
2018-12-22T09:55:14.570Z,100193.86
2018-12-22T10:00:17.192Z,100188.28
2018-12-22T10:05:19.776Z,100203.98
2018-12-22T10:10:22.154Z,100204.46
2018-12-22T10:15:25.335Z,100213.86
2018-12-22T10:20:27.753Z,100199.75
2018-12-22T10:25:30.368Z,100210.19
2018-12-22T10:30:33.101Z,100214.05
2018-12-22T10:35:35.527Z,100222.12
2018-12-22T10:40:38.193Z,100215.56
2018-12-22T10:45:40.554Z,100223.11
2018-12-22T10:50:43.762Z,100226.27
2018-12-22T10:55:46.217Z,100230.53
2018-12-22T11:00:48.657Z,100236.94
2018-12-22T11:05:51.218Z,100245.66
2018-12-22T11:10:53.703Z,100231.80
2018-12-22T11:15:56.111Z,100238.23
2018-12-22T11:20:58.507Z,100240.19
2018-12-22T11:26:00.911Z,100244.69
2018-12-22T11:31:03.390Z,100242.14
2018-12-22T11:36:05.885Z,100235.34
2018-12-22T11:41:08.413Z,100233.48
2018-12-22T11:46:10.836Z,100251.58
2018-12-22T11:51:13.454Z,100258.73
2018-12-22T11:56:15.869Z,100259.83
2018-12-22T12:01:18.586Z,100256.45
2018-12-22T12:06:21.003Z,100279.36
2018-12-22T12:11:23.546Z,100302.02
2018-12-22T12:16:43.821Z,100307.69
2018-12-22T12:21:46.391Z,100309.41
2018-12-22T12:26:48.868Z,100316.74
2018-12-22T12:31:52.285Z,100325.50
2018-12-22T12:36:55.122Z,100320.94
2018-12-22T12:41:57.921Z,100330.80
2018-12-22T12:47:00.635Z,100342.33
2018-12-22T12:52:03.156Z,100341.64
2018-12-22T12:57:05.734Z,100342.33
2018-12-22T13:02:09.103Z,100353.38
2018-12-22T13:07:11.687Z,100374.45
2018-12-22T13:12:17.858Z,100376.23
2018-12-22T13:17:21.182Z,100376.43
2018-12-22T13:22:23.566Z,100385.56
2018-12-22T13:27:26.616Z,100387.38
2018-12-22T13:32:29.065Z,100406.91
2018-12-22T13:37:31.488Z,100401.51
2018-12-22T13:42:34.265Z,100407.30
2018-12-22T13:47:37.082Z,100409.59
2018-12-22T13:52:40.223Z,100416.67
2018-12-22T13:57:43.866Z,100412.66
2018-12-22T14:02:46.263Z,100399.49
2018-12-22T14:07:48.893Z,100420.26
2018-12-22T14:12:51.506Z,100423.41
2018-12-22T14:19:00.250Z,100424.09
2018-12-22T14:24:11.587Z,100432.78
2018-12-22T14:29:14.065Z,100445.91
2018-12-22T14:34:24.210Z,100454.34
2018-12-22T14:39:26.622Z,100464.84
2018-12-22T14:44:29.037Z,100468.09
2018-12-22T14:49:31.426Z,100466.58
2018-12-22T14:54:34.062Z,100475.34
2018-12-22T14:59:37.247Z,100475.70
2018-12-22T15:04:39.771Z,100471.57
2018-12-22T15:09:43.097Z,100492.78
2018-12-22T15:14:45.546Z,100493.98
2018-12-22T15:19:47.943Z,100502.63
2018-12-22T15:24:50.594Z,100515.26
2018-12-22T15:29:52.970Z,100508.59
2018-12-22T15:34:56.085Z,100529.08
2018-12-22T15:39:58.485Z,100529.29
2018-12-22T15:45:01.022Z,100532.43
2018-12-22T15:50:04.502Z,100533.02
2018-12-22T15:55:07.614Z,100541.17
2018-12-22T16:00:11.438Z,100541.64
2018-12-22T16:05:13.761Z,100556.09
2018-12-22T16:10:16.353Z,100566.42
2018-12-22T16:15:19.701Z,100572.48
2018-12-22T16:20:22.045Z,100574.05
2018-12-22T16:25:24.576Z,100578.66
2018-12-22T16:30:31.234Z,100580.88
2018-12-22T16:35:34.506Z,100585.05
2018-12-22T16:40:37.631Z,100592.54
2018-12-22T16:45:44.511Z,100594.23
2018-12-22T16:50:47.216Z,100600.20
2018-12-22T16:55:49.958Z,100601.66
2018-12-22T17:00:59.329Z,100608.84
2018-12-22T17:06:03.541Z,100620.17
2018-12-22T17:11:07.220Z,100618.84
2018-12-22T17:16:10.535Z,100623.52
2018-12-22T17:21:23.409Z,100617.63
2018-12-22T17:26:28.073Z,100624.98
2018-12-22T17:31:30.587Z,100628.88
2018-12-22T17:36:32.898Z,100639.91
2018-12-22T17:41:35.240Z,100645.59
2018-12-22T17:46:37.877Z,100653.80
2018-12-22T17:51:40.164Z,100659.59
2018-12-22T17:56:42.555Z,100671.17
2018-12-22T18:01:44.949Z,100673.44
2018-12-22T18:06:47.289Z,100680.16
2018-12-22T18:11:50.246Z,100692.60
2018-12-22T18:16:52.584Z,100697.97
2018-12-22T18:21:55.668Z,100704.14
2018-12-22T18:26:58.600Z,100714.39
2018-12-22T18:32:01.187Z,100721.04
2018-12-22T18:37:03.581Z,100735.82
2018-12-22T18:42:05.904Z,100732.34
2018-12-22T18:47:08.346Z,100733.75
2018-12-22T18:52:11.635Z,100747.52
2018-12-22T18:57:14.054Z,100743.80
2018-12-22T19:02:16.396Z,100749.23
2018-12-22T19:07:20.287Z,100738.69
2018-12-22T19:12:22.894Z,100740.05
2018-12-22T19:17:25.882Z,100747.91
2018-12-22T19:22:28.184Z,100755.50
2018-12-22T19:27:30.494Z,100768.71
2018-12-22T19:32:32.856Z,100775.36
2018-12-22T19:37:35.304Z,100764.84
2018-12-22T19:42:37.856Z,100766.37
2018-12-22T19:47:40.208Z,100773.45
2018-12-22T19:52:42.631Z,100785.14
2018-12-22T19:57:44.928Z,100782.80
2018-12-22T20:02:47.507Z,100785.14
2018-12-22T20:07:50.484Z,100809.45
2018-12-22T20:12:52.791Z,100811.65
2018-12-22T20:17:55.124Z,100812.23
2018-12-22T20:22:57.489Z,100821.69
2018-12-22T20:28:00.037Z,100821.69
2018-12-22T20:33:02.729Z,100827.98
2018-12-22T20:38:05.071Z,100828.66
2018-12-22T20:43:07.677Z,100824.94
2018-12-22T20:48:10.283Z,100824.94
2018-12-22T20:53:13.499Z,100826.81
2018-12-22T20:58:15.920Z,100838.62
2018-12-22T21:03:20.530Z,100842.50
2018-12-22T21:08:22.946Z,100850.83
2018-12-22T21:13:25.314Z,100850.95
2018-12-22T21:18:28.613Z,100851.92
2018-12-22T21:23:31.232Z,100858.92
2018-12-22T21:28:33.850Z,100867.48
2018-12-22T21:33:36.374Z,100870.09
2018-12-22T21:38:39.438Z,100873.27
2018-12-22T21:43:41.792Z,100871.95
2018-12-22T21:48:44.051Z,100883.13
2018-12-22T21:53:46.756Z,100880.94
2018-12-22T21:58:49.098Z,100889.83
2018-12-22T22:03:51.694Z,100884.78
2018-12-22T22:08:54.719Z,100899.02
2018-12-22T22:13:57.109Z,100910.72
2018-12-22T22:19:00.722Z,100914.31
2018-12-22T22:24:03.335Z,100920.22
2018-12-22T22:29:05.742Z,100917.36
2018-12-22T22:34:08.081Z,100927.60
2018-12-22T22:39:10.563Z,100939.77
2018-12-22T22:44:13.545Z,100935.69
2018-12-22T22:49:18.024Z,100947.62
2018-12-22T22:54:20.485Z,100949.69
2018-12-22T22:59:22.891Z,100959.17
2018-12-22T23:04:25.280Z,100969.95
2018-12-22T23:09:27.609Z,100973.97
2018-12-22T23:14:29.978Z,100975.30
2018-12-22T23:19:32.527Z,100981.02
2018-12-22T23:24:35.114Z,100988.02
2018-12-22T23:29:37.594Z,100995.52
2018-12-22T23:34:40.211Z,100991.89
2018-12-22T23:39:42.647Z,100997.89
2018-12-22T23:44:45.100Z,100998.18
2018-12-22T23:49:47.468Z,101000.80
2018-12-22T23:54:50.597Z,100988.88
2018-12-22T23:59:53.041Z,100983.44
